Time;durP1;ratioP1;P1;durP2;ratioP2;P2;SDS_P1;SDS_P2;PMS_P1;PMS_P2;Temp;Humidity;BMP_temperature;BMP_pressure;BME280_temperature;BME280_humidity;BME280_pressure;Samples;Min_cycle;Max_cycle;Signal;HPM_P1;HPM_P2
2022/08/30 00:02:43;;;;;;;;;;;25.10;66.70;;;;;;5072646;28;19978;-70
2022/08/30 00:05:09;;;;;;;;;;;25.10;67.00;;;;;;5072582;28;19968;-69
2022/08/30 00:07:34;;;;;;;;;;;25.10;66.80;;;;;;5072744;28;19916;-68
2022/08/30 00:10:00;;;;;;;;;;;25.10;67.00;;;;;;5072366;28;19964;-69
2022/08/30 00:12:26;;;;;;;;;;;25.00;67.10;;;;;;5072504;28;20062;-69
2022/08/30 00:14:51;;;;;;;;;;;25.00;67.20;;;;;;5072425;28;19909;-69
2022/08/30 00:17:18;;;;;;;;;;;25.00;67.20;;;;;;5072249;28;19908;-68
2022/08/30 00:19:44;;;;;;;;;;;25.00;67.00;;;;;;5072236;28;20392;-69
2022/08/30 00:22:09;;;;;;;;;;;24.90;67.70;;;;;;5055576;28;19944;-68
2022/08/30 00:24:35;;;;;;;;;;;24.90;67.40;;;;;;5072461;28;19963;-68
2022/08/30 00:27:00;;;;;;;;;;;25.00;67.40;;;;;;5072078;28;20284;-69
2022/08/30 00:29:26;;;;;;;;;;;25.00;67.90;;;;;;5074399;28;19917;-68
2022/08/30 00:31:51;;;;;;;;;;;24.90;67.30;;;;;;5084095;28;20000;-68
2022/08/30 00:34:17;;;;;;;;;;;25.10;67.10;;;;;;5072191;28;19961;-68
2022/08/30 00:36:43;;;;;;;;;;;25.10;66.70;;;;;;5072317;28;19916;-68
2022/08/30 00:39:09;;;;;;;;;;;25.10;66.40;;;;;;5071992;28;19947;-67
2022/08/30 00:41:36;;;;;;;;;;;25.00;66.70;;;;;;5072096;28;19947;-69
2022/08/30 00:44:02;;;;;;;;;;;25.00;66.60;;;;;;5070880;28;19909;-68
2022/08/30 00:46:28;;;;;;;;;;;25.00;66.50;;;;;;5071737;28;19943;-68
2022/08/30 00:48:54;;;;;;;;;;;25.00;66.70;;;;;;5071444;28;19912;-68
2022/08/30 00:51:21;;;;;;;;;;;25.00;66.70;;;;;;5070753;28;20345;-68
2022/08/30 00:53:49;;;;;;;;;;;25.10;66.50;;;;;;5056482;28;19931;-68
2022/08/30 00:56:16;;;;;;;;;;;25.00;66.60;;;;;;5072438;28;20011;-68
2022/08/30 00:58:44;;;;;;;;;;;24.90;66.80;;;;;;5072944;28;19916;-69
2022/08/30 01:01:10;;;;;;;;;;;24.80;67.40;;;;;;5082117;28;19987;-67
2022/08/30 01:03:37;;;;;;;;;;;24.80;67.50;;;;;;5077840;28;19909;-69
2022/08/30 01:06:03;;;;;;;;;;;24.80;67.20;;;;;;5089487;28;20340;-69
2022/08/30 01:08:29;;;;;;;;;;;24.80;67.10;;;;;;5072027;28;20272;-69
2022/08/30 01:10:55;;;;;;;;;;;24.80;67.20;;;;;;5071690;28;19909;-68
2022/08/30 01:13:22;;;;;;;;;;;24.80;67.40;;;;;;5078463;28;19908;-68
2022/08/30 01:15:48;;;;;;;;;;;24.80;67.40;;;;;;5079359;28;19913;-68
2022/08/30 01:18:16;;;;;;;;;;;24.60;67.80;;;;;;5071578;28;20384;-68
2022/08/30 01:21:01;;;;;;;;;;;24.70;67.70;;;;;;5071869;28;19977;-68
2022/08/30 01:23:27;;;;;;;;;;;24.70;67.60;;;;;;5058093;28;19920;-67
2022/08/30 01:25:53;;;;;;;;;;;24.80;67.40;;;;;;5071491;28;19919;-68
2022/08/30 01:28:21;;;;;;;;;;;24.70;67.50;;;;;;5071578;28;19917;-68
2022/08/30 01:30:47;;;;;;;;;;;24.70;67.40;;;;;;5081069;28;19908;-68
2022/08/30 01:33:13;;;;;;;;;;;24.60;67.70;;;;;;5076171;28;20004;-69
2022/08/30 01:35:52;;;;;;;;;;;24.70;67.30;;;;;;5071651;28;19920;-68
2022/08/30 01:38:19;;;;;;;;;;;24.80;67.30;;;;;;5071472;28;20365;-68
2022/08/30 01:40:45;;;;;;;;;;;24.80;66.90;;;;;;5070263;28;20090;-68
2022/08/30 01:43:12;;;;;;;;;;;24.70;67.00;;;;;;5071371;28;20019;-69
2022/08/30 01:45:38;;;;;;;;;;;24.60;67.00;;;;;;5071532;28;19919;-69
2022/08/30 01:48:03;;;;;;;;;;;24.60;66.90;;;;;;5071272;28;20765;-69
2022/08/30 01:50:29;;;;;;;;;;;24.20;69.00;;;;;;5071126;28;19908;-68
2022/08/30 01:52:54;;;;;;;;;;;24.30;68.30;;;;;;5058634;28;19935;-68
2022/08/30 01:55:20;;;;;;;;;;;24.40;67.80;;;;;;5071334;28;19912;-70
2022/08/30 01:57:46;;;;;;;;;;;24.40;67.70;;;;;;5071411;28;19908;-69
2022/08/30 02:00:12;;;;;;;;;;;24.40;67.60;;;;;;5074731;28;19908;-68
2022/08/30 02:02:37;;;;;;;;;;;24.40;67.40;;;;;;5074971;28;19931;-68
2022/08/30 02:05:03;;;;;;;;;;;24.50;67.30;;;;;;5085486;28;20060;-68
2022/08/30 02:07:29;;;;;;;;;;;24.40;67.20;;;;;;5078206;28;19923;-69
2022/08/30 02:09:55;;;;;;;;;;;24.50;66.90;;;;;;5074700;28;19909;-68
2022/08/30 02:12:21;;;;;;;;;;;24.50;67.00;;;;;;5074696;28;19913;-68
2022/08/30 02:14:46;;;;;;;;;;;24.30;67.60;;;;;;5074786;28;19912;-70
2022/08/30 02:17:13;;;;;;;;;;;24.10;68.30;;;;;;5074867;28;19954;-69
2022/08/30 02:19:40;;;;;;;;;;;24.20;68.30;;;;;;5072951;28;19920;-68
2022/08/30 02:22:06;;;;;;;;;;;24.20;68.50;;;;;;5060374;28;19956;-68
2022/08/30 02:24:31;;;;;;;;;;;24.40;67.70;;;;;;5074735;28;19916;-69
2022/08/30 02:26:57;;;;;;;;;;;24.50;67.30;;;;;;5074403;28;20453;-68
2022/08/30 02:29:23;;;;;;;;;;;24.50;66.90;;;;;;5074444;28;19920;-69
2022/08/30 02:31:49;;;;;;;;;;;24.50;66.80;;;;;;5074514;28;19909;-68
2022/08/30 02:34:15;;;;;;;;;;;24.50;66.90;;;;;;5073200;28;19912;-68
2022/08/30 02:36:40;;;;;;;;;;;24.50;66.70;;;;;;5074334;28;20272;-69
2022/08/30 02:39:07;;;;;;;;;;;24.50;66.50;;;;;;5073062;28;20265;-69
2022/08/30 02:41:33;;;;;;;;;;;24.60;66.40;;;;;;5074265;28;19913;-70
2022/08/30 02:43:59;;;;;;;;;;;24.60;66.00;;;;;;5074250;28;19916;-69
2022/08/30 02:46:25;;;;;;;;;;;24.70;66.10;;;;;;5074137;28;19920;-68
2022/08/30 02:48:51;;;;;;;;;;;24.70;66.00;;;;;;5074140;28;19916;-68
2022/08/30 02:51:16;;;;;;;;;;;24.60;65.80;;;;;;5074173;28;19913;-68
2022/08/30 02:53:42;;;;;;;;;;;24.50;66.30;;;;;;5057518;28;19913;-69
2022/08/30 02:56:09;;;;;;;;;;;24.50;66.50;;;;;;5074167;28;19919;-69
2022/08/30 02:58:35;;;;;;;;;;;24.60;66.30;;;;;;5073950;28;20267;-69
2022/08/30 03:01:00;;;;;;;;;;;24.60;66.80;;;;;;5074118;28;19961;-68
2022/08/30 03:03:26;;;;;;;;;;;24.60;66.00;;;;;;5075882;28;20318;-70
2022/08/30 03:05:51;;;;;;;;;;;24.60;65.90;;;;;;5091371;28;20320;-68
2022/08/30 03:08:17;;;;;;;;;;;24.60;66.00;;;;;;5076453;28;19923;-68
2022/08/30 03:10:43;;;;;;;;;;;24.60;66.00;;;;;;5074505;28;19913;-68
2022/08/30 03:13:08;;;;;;;;;;;24.60;66.10;;;;;;5074153;28;19913;-69
2022/08/30 03:15:35;;;;;;;;;;;24.70;65.80;;;;;;5073952;28;19962;-69
2022/08/30 03:18:01;;;;;;;;;;;24.60;65.50;;;;;;5073510;28;19920;-70
2022/08/30 03:20:26;;;;;;;;;;;24.60;65.80;;;;;;5072377;28;20332;-69
2022/08/30 03:22:52;;;;;;;;;;;24.60;66.10;;;;;;5065621;28;19912;-70
2022/08/30 03:25:19;;;;;;;;;;;24.60;66.10;;;;;;5073553;28;19944;-68
2022/08/30 03:27:45;;;;;;;;;;;24.60;66.00;;;;;;5073173;28;20010;-67
2022/08/30 03:30:11;;;;;;;;;;;24.50;66.30;;;;;;5071931;28;20356;-69
2022/08/30 03:32:37;;;;;;;;;;;24.20;66.70;;;;;;5073783;28;20414;-68
2022/08/30 03:35:03;;;;;;;;;;;24.10;67.40;;;;;;5073152;28;19912;-69
2022/08/30 03:37:28;;;;;;;;;;;24.10;67.30;;;;;;5073191;28;19912;-68
2022/08/30 03:39:54;;;;;;;;;;;24.00;67.30;;;;;;5071593;28;19909;-68
2022/08/30 03:42:20;;;;;;;;;;;24.10;66.50;;;;;;5073223;28;19908;-69
2022/08/30 03:44:46;;;;;;;;;;;24.20;66.00;;;;;;5073039;28;20312;-70
2022/08/30 03:47:11;;;;;;;;;;;24.20;65.90;;;;;;5072934;28;19962;-68
2022/08/30 03:49:37;;;;;;;;;;;24.30;65.30;;;;;;5072917;28;20382;-68
2022/08/30 03:52:03;;;;;;;;;;;24.30;65.20;;;;;;5058722;28;20439;-69
2022/08/30 03:54:28;;;;;;;;;;;24.40;65.40;;;;;;5072987;28;19978;-67
2022/08/30 03:56:54;;;;;;;;;;;24.40;65.30;;;;;;5072824;28;20257;-68
2022/08/30 03:59:20;;;;;;;;;;;24.40;65.20;;;;;;5072669;28;19934;-69
2022/08/30 04:01:46;;;;;;;;;;;24.30;65.40;;;;;;5072618;28;19912;-69
2022/08/30 04:04:12;;;;;;;;;;;24.30;65.20;;;;;;5076167;28;19915;-69
2022/08/30 04:06:38;;;;;;;;;;;24.30;65.30;;;;;;5081929;28;20009;-69
2022/08/30 04:09:03;;;;;;;;;;;24.30;65.40;;;;;;5072481;28;20303;-68
2022/08/30 04:11:29;;;;;;;;;;;24.40;65.60;;;;;;5072550;28;19920;-69
2022/08/30 04:13:55;;;;;;;;;;;24.30;65.50;;;;;;5072594;28;19959;-68
2022/08/30 04:16:22;;;;;;;;;;;24.30;65.20;;;;;;5072290;28;19999;-69
2022/08/30 04:18:47;;;;;;;;;;;24.30;65.50;;;;;;5072395;28;19928;-68
2022/08/30 04:21:13;;;;;;;;;;;24.20;65.50;;;;;;5072198;28;19908;-69
2022/08/30 04:23:38;;;;;;;;;;;24.20;65.90;;;;;;5058015;28;19912;-68
2022/08/30 04:26:04;;;;;;;;;;;24.30;65.80;;;;;;5072220;28;19919;-69
2022/08/30 04:28:30;;;;;;;;;;;24.30;65.70;;;;;;5072455;28;20035;-68
2022/08/30 04:30:55;;;;;;;;;;;24.30;65.50;;;;;;5072255;28;20011;-69
2022/08/30 04:33:21;;;;;;;;;;;24.20;65.60;;;;;;5072203;28;19916;-68
2022/08/30 04:35:48;;;;;;;;;;;24.10;65.80;;;;;;5072467;28;20356;-69
2022/08/30 04:38:14;;;;;;;;;;;24.20;65.80;;;;;;5072325;28;19948;-68
2022/08/30 04:40:40;;;;;;;;;;;24.10;65.90;;;;;;5072184;28;19920;-69
2022/08/30 04:43:06;;;;;;;;;;;24.00;66.40;;;;;;5072139;28;19920;-69
2022/08/30 04:45:32;;;;;;;;;;;24.10;66.10;;;;;;5072044;28;19982;-68
2022/08/30 04:47:58;;;;;;;;;;;24.10;66.40;;;;;;5070861;28;20019;-69
2022/08/30 04:50:23;;;;;;;;;;;24.00;66.60;;;;;;5072336;28;19908;-69
2022/08/30 04:52:49;;;;;;;;;;;24.10;66.40;;;;;;5056379;28;20298;-70
2022/08/30 04:55:15;;;;;;;;;;;24.10;66.10;;;;;;5072041;28;20477;-69
2022/08/30 04:57:40;;;;;;;;;;;24.10;66.00;;;;;;5072069;28;20295;-69
2022/08/30 05:00:08;;;;;;;;;;;24.00;66.20;;;;;;5070451;28;19998;-69
2022/08/30 05:02:33;;;;;;;;;;;24.10;66.30;;;;;;5071939;28;20372;-69
2022/08/30 05:07:44;;;;;;;;;;;24.20;66.10;;;;;;5073320;28;19967;-68
2022/08/30 05:10:09;;;;;;;;;;;24.20;65.90;;;;;;5071931;28;19956;-69
2022/08/30 05:12:35;;;;;;;;;;;24.20;65.70;;;;;;5072306;28;19966;-68
2022/08/30 05:15:00;;;;;;;;;;;24.20;65.60;;;;;;5072899;28;19924;-68
2022/08/30 05:17:26;;;;;;;;;;;24.10;66.20;;;;;;5071441;28;19959;-67
2022/08/30 05:19:51;;;;;;;;;;;24.20;66.10;;;;;;5073703;28;19909;-68
2022/08/30 05:22:17;;;;;;;;;;;24.20;66.30;;;;;;5061659;28;20011;-68
2022/08/30 05:24:42;;;;;;;;;;;24.10;66.50;;;;;;5071993;28;20368;-68
2022/08/30 05:27:08;;;;;;;;;;;24.20;66.10;;;;;;5071582;28;20458;-70
2022/08/30 05:29:33;;;;;;;;;;;24.20;66.20;;;;;;5071587;28;19955;-68
2022/08/30 05:31:59;;;;;;;;;;;24.20;66.60;;;;;;5071723;28;20383;-69
2022/08/30 05:34:25;;;;;;;;;;;24.20;66.70;;;;;;5074676;28;20283;-70
2022/08/30 05:36:52;;;;;;;;;;;24.10;66.60;;;;;;5076183;28;19920;-69
2022/08/30 05:39:17;;;;;;;;;;;24.20;66.80;;;;;;5076798;28;19908;-68
2022/08/30 05:41:43;;;;;;;;;;;24.20;66.50;;;;;;5076899;28;19913;-71
2022/08/30 05:44:09;;;;;;;;;;;24.20;66.60;;;;;;5076809;28;19914;-67
2022/08/30 05:46:35;;;;;;;;;;;24.20;66.70;;;;;;5076118;28;19938;-68
2022/08/30 05:49:01;;;;;;;;;;;24.20;66.70;;;;;;5075485;28;19917;-75
2022/08/30 05:51:28;;;;;;;;;;;24.20;66.90;;;;;;5073642;28;19912;-65
2022/08/30 05:53:55;;;;;;;;;;;24.20;66.80;;;;;;5075504;28;20423;-66
2022/08/30 05:56:22;;;;;;;;;;;24.30;66.50;;;;;;5076225;28;19908;-75
2022/08/30 05:58:48;;;;;;;;;;;24.30;66.50;;;;;;5076437;28;19920;-74
2022/08/30 06:01:37;;;;;;;;;;;24.40;66.30;;;;;;5075948;28;19916;-71
2022/08/30 06:04:03;;;;;;;;;;;24.40;66.40;;;;;;5078054;28;19909;-67
2022/08/30 06:06:30;;;;;;;;;;;24.50;66.00;;;;;;5087466;28;20015;-70
2022/08/30 06:08:55;;;;;;;;;;;24.90;65.20;;;;;;5073726;28;19970;-73
2022/08/30 06:11:22;;;;;;;;;;;25.20;63.50;;;;;;5075202;28;20348;-72
2022/08/30 06:13:49;;;;;;;;;;;25.60;62.80;;;;;;5074990;28;19982;-70
2022/08/30 06:16:15;;;;;;;;;;;26.00;61.50;;;;;;5074674;28;19944;-69
2022/08/30 06:18:41;;;;;;;;;;;26.20;60.30;;;;;;5074622;28;19921;-70
2022/08/30 06:21:07;;;;;;;;;;;26.50;59.60;;;;;;5074561;28;19969;-71
2022/08/30 06:23:33;;;;;;;;;;;26.60;59.20;;;;;;5062087;28;19919;-75
2022/08/30 06:26:05;;;;;;;;;;;26.70;58.30;;;;;;5074476;28;20332;-71
2022/08/30 06:28:31;;;;;;;;;;;26.80;58.50;;;;;;5074619;28;19939;-70
2022/08/30 06:30:57;;;;;;;;;;;26.90;58.40;;;;;;5074469;28;20358;-70
2022/08/30 06:33:22;;;;;;;;;;;27.00;57.90;;;;;;5074556;28;19909;-70
2022/08/30 06:35:48;;;;;;;;;;;27.20;57.80;;;;;;5074413;28;20352;-72
2022/08/30 06:38:14;;;;;;;;;;;27.30;57.40;;;;;;5074496;28;20038;-72
2022/08/30 06:40:39;;;;;;;;;;;27.40;57.10;;;;;;5074197;28;19958;-68
2022/08/30 06:43:05;;;;;;;;;;;27.60;56.80;;;;;;5074347;28;19958;-72
2022/08/30 06:45:32;;;;;;;;;;;27.70;56.70;;;;;;5073343;28;19912;-68
2022/08/30 06:47:57;;;;;;;;;;;27.80;56.60;;;;;;5074500;28;19920;-67
2022/08/30 06:50:24;;;;;;;;;;;28.00;56.60;;;;;;5073999;28;19930;-65
2022/08/30 06:52:50;;;;;;;;;;;28.20;55.70;;;;;;5063983;28;19908;-65
2022/08/30 06:55:16;;;;;;;;;;;28.30;55.50;;;;;;5074250;28;19931;-67
2022/08/30 06:57:41;;;;;;;;;;;28.30;55.50;;;;;;5074161;28;19968;-67
2022/08/30 07:00:08;;;;;;;;;;;28.40;54.80;;;;;;5072729;28;19959;-62
2022/08/30 07:02:35;;;;;;;;;;;28.40;54.50;;;;;;5074306;28;20003;-66
2022/08/30 07:05:01;;;;;;;;;;;28.30;54.80;;;;;;5083674;28;19919;-66
2022/08/30 07:07:27;;;;;;;;;;;28.30;54.60;;;;;;5076946;28;19921;-69
2022/08/30 07:09:53;;;;;;;;;;;28.40;54.90;;;;;;5073467;28;20031;-70
2022/08/30 07:12:19;;;;;;;;;;;28.50;54.50;;;;;;5074052;28;20027;-67
2022/08/30 07:14:45;;;;;;;;;;;28.60;54.10;;;;;;5074243;28;19939;-67
2022/08/30 07:19:54;;;;;;;;;;;28.70;53.10;;;;;;5074075;28;19926;-69
2022/08/30 07:22:20;;;;;;;;;;;28.80;52.70;;;;;;5062989;28;20280;-69
2022/08/30 07:24:46;;;;;;;;;;;28.80;52.80;;;;;;5073665;28;20380;-69
2022/08/30 07:27:12;;;;;;;;;;;28.70;52.60;;;;;;5073593;28;19917;-73
2022/08/30 07:29:37;;;;;;;;;;;28.90;52.80;;;;;;5073360;28;20010;-69
2022/08/30 07:32:03;;;;;;;;;;;28.90;52.50;;;;;;5073323;28;19919;-68
2022/08/30 07:34:29;;;;;;;;;;;28.80;52.30;;;;;;5073576;28;19908;-69
2022/08/30 07:36:54;;;;;;;;;;;28.80;52.10;;;;;;5073676;28;19963;-66
2022/08/30 07:39:20;;;;;;;;;;;28.90;52.30;;;;;;5073434;28;19916;-66
2022/08/30 07:41:45;;;;;;;;;;;29.00;51.70;;;;;;5073378;28;19908;-65
2022/08/30 07:44:11;;;;;;;;;;;29.00;51.90;;;;;;5073088;28;19920;-63
2022/08/30 07:46:37;;;;;;;;;;;29.00;51.10;;;;;;5072358;28;19912;-64
2022/08/30 07:49:03;;;;;;;;;;;29.00;51.00;;;;;;5072343;28;19928;-66
2022/08/30 07:51:30;;;;;;;;;;;28.90;50.80;;;;;;5068310;28;19908;-66
2022/08/30 07:53:56;;;;;;;;;;;29.00;50.50;;;;;;5068563;28;19912;-66
2022/08/30 07:56:22;;;;;;;;;;;29.00;50.90;;;;;;5072673;28;19955;-64
2022/08/30 07:58:48;;;;;;;;;;;28.90;51.20;;;;;;5073173;28;19917;-64
2022/08/30 08:01:14;;;;;;;;;;;28.90;51.30;;;;;;5072862;28;19912;-64
2022/08/30 08:03:40;;;;;;;;;;;29.10;51.20;;;;;;5072752;28;19909;-65
2022/08/30 08:06:07;;;;;;;;;;;29.20;51.40;;;;;;5072877;28;20369;-65
2022/08/30 08:08:33;;;;;;;;;;;29.30;51.20;;;;;;5072465;28;20005;-66
2022/08/30 08:11:04;;;;;;;;;;;29.30;49.90;;;;;;5072419;28;19962;-66
2022/08/30 08:13:30;;;;;;;;;;;29.30;49.30;;;;;;5072441;28;19979;-66
2022/08/30 08:15:56;;;;;;;;;;;29.40;50.10;;;;;;5072164;28;19948;-67
2022/08/30 08:18:21;;;;;;;;;;;29.30;49.80;;;;;;5072806;28;19947;-66
2022/08/30 08:20:47;;;;;;;;;;;29.30;49.70;;;;;;5072872;28;19912;-67
2022/08/30 08:23:12;;;;;;;;;;;29.40;50.20;;;;;;5065310;28;19918;-67
2022/08/30 08:25:39;;;;;;;;;;;29.40;49.60;;;;;;5077766;28;19916;-67
2022/08/30 08:28:05;;;;;;;;;;;29.40;50.50;;;;;;5075360;28;19920;-67
2022/08/30 08:30:32;;;;;;;;;;;29.50;50.70;;;;;;5074086;28;19966;-68
2022/08/30 08:32:58;;;;;;;;;;;29.50;49.80;;;;;;5073386;28;19917;-65
2022/08/30 08:35:23;;;;;;;;;;;29.50;48.80;;;;;;5072837;28;19992;-65
2022/08/30 08:37:49;;;;;;;;;;;29.50;49.10;;;;;;5072687;28;19909;-64
2022/08/30 08:40:17;;;;;;;;;;;29.50;48.80;;;;;;5072452;28;19916;-66
2022/08/30 08:43:00;;;;;;;;;;;29.50;49.20;;;;;;5072471;28;19908;-66
2022/08/30 08:45:46;;;;;;;;;;;29.50;48.40;;;;;;5071421;28;20253;-66
2022/08/30 08:48:24;;;;;;;;;;;29.60;48.70;;;;;;5073119;28;19975;-63
2022/08/30 08:53:34;;;;;;;;;;;29.60;49.30;;;;;;5070735;28;20305;-69
2022/08/30 08:56:06;;;;;;;;;;;29.60;49.70;;;;;;5074195;28;19908;-68
2022/08/30 08:58:58;;;;;;;;;;;29.60;49.90;;;;;;5071285;28;19912;-67
2022/08/30 09:01:26;;;;;;;;;;;29.70;49.40;;;;;;5085437;28;20340;-67
2022/08/30 09:03:53;;;;;;;;;;;29.60;49.10;;;;;;5072640;28;19915;-68
2022/08/30 09:06:18;;;;;;;;;;;29.60;48.40;;;;;;5083679;28;19999;-66
2022/08/30 09:08:44;;;;;;;;;;;29.60;49.20;;;;;;5083148;28;20006;-67
2022/08/30 09:11:15;;;;;;;;;;;29.60;49.50;;;;;;5075913;28;19959;-67
2022/08/30 09:13:41;;;;;;;;;;;29.60;48.60;;;;;;5074916;28;19908;-67
2022/08/30 09:16:06;;;;;;;;;;;29.60;49.10;;;;;;5075727;28;19915;-67
2022/08/30 09:18:41;;;;;;;;;;;29.60;48.80;;;;;;5074618;28;19931;-65
2022/08/30 09:21:06;;;;;;;;;;;29.60;49.60;;;;;;5075746;28;19921;-72
2022/08/30 09:23:32;;;;;;;;;;;29.50;49.00;;;;;;5063482;28;20423;-66
2022/08/30 09:26:05;;;;;;;;;;;29.50;47.50;;;;;;5075263;28;19982;-68
2022/08/30 09:28:42;;;;;;;;;;;29.60;47.10;;;;;;5075132;28;19943;-66
2022/08/30 09:31:17;;;;;;;;;;;29.60;47.30;;;;;;5074636;28;19967;-66
2022/08/30 09:34:02;;;;;;;;;;;29.60;48.00;;;;;;5093028;28;20006;-67
2022/08/30 09:36:51;;;;;;;;;;;29.50;48.00;;;;;;5093448;28;20387;-68
2022/08/30 09:39:18;;;;;;;;;;;29.50;48.10;;;;;;5082781;28;20659;-67
2022/08/30 09:41:47;;;;;;;;;;;29.50;48.10;;;;;;5075564;28;19912;-66
2022/08/30 09:44:15;;;;;;;;;;;29.50;47.00;;;;;;5075869;28;19912;-66
2022/08/30 09:46:49;;;;;;;;;;;29.50;46.60;;;;;;5075905;28;19913;-68
2022/08/30 09:49:30;;;;;;;;;;;29.50;47.10;;;;;;5087352;28;19971;-64
2022/08/30 09:52:01;;;;;;;;;;;29.50;48.00;;;;;;5097959;28;19915;-67
2022/08/30 09:54:32;;;;;;;;;;;29.50;51.20;;;;;;5110629;28;19912;-66
2022/08/30 09:57:04;;;;;;;;;;;29.40;53.20;;;;;;5106995;28;19938;-68
2022/08/30 10:00:03;;;;;;;;;;;29.40;54.00;;;;;;5101354;28;19918;-68
2022/08/30 10:02:47;;;;;;;;;;;29.30;54.40;;;;;;5081643;28;19912;-67
2022/08/30 10:05:31;;;;;;;;;;;29.20;54.60;;;;;;5087481;28;20027;-67
2022/08/30 10:08:03;;;;;;;;;;;29.10;55.50;;;;;;5075557;28;19924;-69
2022/08/30 10:10:35;;;;;;;;;;;29.00;55.80;;;;;;5073849;28;20003;-66
2022/08/30 10:13:28;;;;;;;;;;;28.80;55.40;;;;;;5074080;28;19915;-64
2022/08/30 10:16:06;;;;;;;;;;;28.70;56.30;;;;;;5094090;28;19912;-68
2022/08/30 10:18:58;;;;;;;;;;;28.60;56.80;;;;;;5093838;28;19920;-70
2022/08/30 10:21:37;;;;;;;;;;;28.60;57.60;;;;;;5091562;28;19970;-72
2022/08/30 10:24:06;;;;;;;;;;;28.60;56.90;;;;;;5090123;28;20450;-72
2022/08/30 10:26:33;;;;;;;;;;;28.50;56.80;;;;;;5074656;28;19912;-76
2022/08/30 10:29:02;;;;;;;;;;;28.50;58.10;;;;;;5074621;28;19916;-69
2022/08/30 10:31:35;;;;;;;;;;;28.50;56.40;;;;;;5074766;28;19908;-65
2022/08/30 10:34:08;;;;;;;;;;;28.60;57.00;;;;;;5074375;28;19935;-70
2022/08/30 10:36:38;;;;;;;;;;;28.50;57.30;;;;;;5087246;28;20367;-70
2022/08/30 10:39:06;;;;;;;;;;;28.50;57.30;;;;;;5076314;28;20352;-71
2022/08/30 10:41:38;;;;;;;;;;;28.50;58.10;;;;;;5074281;28;20433;-64
2022/08/30 10:44:10;;;;;;;;;;;28.50;58.70;;;;;;5072533;28;19999;-74
2022/08/30 10:46:44;;;;;;;;;;;28.40;59.40;;;;;;5074947;28;19916;-66
2022/08/30 10:49:13;;;;;;;;;;;28.50;60.00;;;;;;5092439;28;19916;-73
2022/08/30 10:51:46;;;;;;;;;;;28.50;59.70;;;;;;5081944;28;20003;-70
2022/08/30 10:54:18;;;;;;;;;;;28.50;58.50;;;;;;5081037;28;20007;-71
2022/08/30 10:56:44;;;;;;;;;;;28.50;58.80;;;;;;5084873;28;19919;-72
2022/08/30 10:59:10;;;;;;;;;;;28.60;57.30;;;;;;5079278;28;19955;-68
2022/08/30 11:01:41;;;;;;;;;;;28.60;58.00;;;;;;5088254;28;20049;-68
2022/08/30 11:04:25;;;;;;;;;;;28.60;57.30;;;;;;5074613;28;19916;-68
2022/08/30 11:07:01;;;;;;;;;;;28.70;57.70;;;;;;5073020;28;19917;-69
2022/08/30 11:09:33;;;;;;;;;;;28.70;57.50;;;;;;5077478;28;20017;-68
2022/08/30 11:11:58;;;;;;;;;;;28.70;57.10;;;;;;5072702;28;20356;-72
2022/08/30 11:14:25;;;;;;;;;;;28.70;56.30;;;;;;5081139;28;19923;-71
2022/08/30 11:16:52;;;;;;;;;;;28.70;56.20;;;;;;5077151;28;20290;-73
2022/08/30 11:19:18;;;;;;;;;;;28.70;55.40;;;;;;5082283;28;19927;-68
2022/08/30 11:21:44;;;;;;;;;;;28.70;54.60;;;;;;5056804;28;19921;-68
2022/08/30 11:24:12;;;;;;;;;;;28.70;54.50;;;;;;5081726;28;19965;-70
2022/08/30 11:26:44;;;;;;;;;;;28.70;53.60;;;;;;5090303;28;19939;-72
2022/08/30 11:29:27;;;;;;;;;;;28.70;54.70;;;;;;5080428;28;19908;-70
2022/08/30 11:31:53;;;;;;;;;;;28.80;54.80;;;;;;5089214;28;19918;-71
2022/08/30 11:34:37;;;;;;;;;;;28.80;55.60;;;;;;5081225;28;19963;-72
2022/08/30 11:37:03;;;;;;;;;;;28.80;56.40;;;;;;5075241;28;19917;-71
2022/08/30 11:39:47;;;;;;;;;;;28.70;56.00;;;;;;5072644;28;20264;-70
2022/08/30 11:42:25;;;;;;;;;;;28.70;56.40;;;;;;5086175;28;19920;-70
2022/08/30 11:44:51;;;;;;;;;;;28.70;55.60;;;;;;5083099;28;19908;-69
2022/08/30 11:47:52;;;;;;;;;;;28.60;55.50;;;;;;5088749;28;19916;-68
2022/08/30 11:50:17;;;;;;;;;;;28.60;54.90;;;;;;5048445;28;19912;-64
2022/08/30 11:52:49;;;;;;;;;;;28.60;55.20;;;;;;5059199;28;20003;-66
2022/08/30 11:55:36;;;;;;;;;;;28.60;53.80;;;;;;5080265;28;19916;-70
2022/08/30 11:58:14;;;;;;;;;;;28.60;54.20;;;;;;5071844;28;19957;-71
2022/08/30 12:00:43;;;;;;;;;;;28.50;55.00;;;;;;5080551;28;19912;-73
2022/08/30 12:03:15;;;;;;;;;;;28.40;55.40;;;;;;5071633;28;19917;-69
2022/08/30 12:05:44;;;;;;;;;;;28.40;55.50;;;;;;5071971;28;19912;-73
2022/08/30 12:08:09;;;;;;;;;;;28.40;55.80;;;;;;5070273;28;19999;-72
2022/08/30 12:10:37;;;;;;;;;;;28.50;55.90;;;;;;5077396;28;20095;-70
2022/08/30 12:13:03;;;;;;;;;;;28.40;55.50;;;;;;5074250;28;19909;-78
2022/08/30 12:15:48;;;;;;;;;;;28.40;56.00;;;;;;5072468;28;19908;-68
2022/08/30 12:18:29;;;;;;;;;;;28.40;56.80;;;;;;5073110;28;19945;-73
2022/08/30 12:21:00;;;;;;;;;;;28.40;57.80;;;;;;5071629;28;19953;-69
2022/08/30 12:23:25;;;;;;;;;;;28.40;57.30;;;;;;5060295;28;19917;-75
2022/08/30 12:26:08;;;;;;;;;;;28.40;57.50;;;;;;5073225;28;20045;-66
2022/08/30 12:28:33;;;;;;;;;;;28.40;56.30;;;;;;5071644;28;19965;-75
2022/08/30 12:31:06;;;;;;;;;;;28.40;58.20;;;;;;5074266;28;20011;-70
2022/08/30 12:33:37;;;;;;;;;;;28.40;58.30;;;;;;5073062;28;19912;-67
2022/08/30 12:36:03;;;;;;;;;;;28.40;58.70;;;;;;5074016;28;19920;-69
2022/08/30 12:38:28;;;;;;;;;;;28.30;58.50;;;;;;5072886;28;19913;-68
2022/08/30 12:40:56;;;;;;;;;;;28.30;58.80;;;;;;5072163;28;20283;-67
2022/08/30 12:43:24;;;;;;;;;;;28.40;59.00;;;;;;5071629;28;20065;-68
2022/08/30 12:45:50;;;;;;;;;;;28.30;59.30;;;;;;5072166;28;20002;-70
2022/08/30 12:48:16;;;;;;;;;;;28.30;59.30;;;;;;5073526;28;19924;-77
2022/08/30 12:50:47;;;;;;;;;;;28.20;59.10;;;;;;5071370;28;19920;-75
2022/08/30 12:53:19;;;;;;;;;;;28.20;59.20;;;;;;5064514;28;19912;-76
2022/08/30 12:55:54;;;;;;;;;;;28.20;59.20;;;;;;5071723;28;19999;-73
2022/08/30 12:58:37;;;;;;;;;;;28.30;59.10;;;;;;5090011;28;19934;-77
2022/08/30 13:01:22;;;;;;;;;;;28.30;58.80;;;;;;5091237;28;19912;-68
2022/08/30 13:03:57;;;;;;;;;;;28.30;58.50;;;;;;5091055;28;19912;-71
2022/08/30 13:06:36;;;;;;;;;;;28.30;58.30;;;;;;5091480;28;19912;-77
2022/08/30 13:09:02;;;;;;;;;;;28.30;58.40;;;;;;5091173;28;20382;-73
2022/08/30 13:11:27;;;;;;;;;;;28.40;58.50;;;;;;5074325;28;19916;-75
2022/08/30 13:14:13;;;;;;;;;;;28.40;60.20;;;;;;5074863;28;20412;-79
2022/08/30 13:16:38;;;;;;;;;;;28.40;59.60;;;;;;5072474;28;20368;-73
2022/08/30 13:19:23;;;;;;;;;;;28.40;60.10;;;;;;5070851;28;19927;-76
2022/08/30 13:21:52;;;;;;;;;;;28.40;59.90;;;;;;5081527;28;19916;-75
2022/08/30 13:24:18;;;;;;;;;;;28.50;59.60;;;;;;5091536;28;20304;-67
2022/08/30 13:26:44;;;;;;;;;;;28.40;59.50;;;;;;5091368;28;19919;-71
2022/08/30 13:29:20;;;;;;;;;;;28.50;58.60;;;;;;5091441;28;20325;-69
2022/08/30 13:31:46;;;;;;;;;;;28.50;57.80;;;;;;5091285;28;19912;-72
2022/08/30 13:34:12;;;;;;;;;;;28.50;58.20;;;;;;5091380;28;19912;-71
2022/08/30 13:36:45;;;;;;;;;;;28.40;59.10;;;;;;5091154;28;19908;-64
2022/08/30 13:39:12;;;;;;;;;;;28.50;59.60;;;;;;5091324;28;19915;-72
2022/08/30 13:41:38;;;;;;;;;;;28.50;59.30;;;;;;5082234;28;19919;-72
2022/08/30 13:44:04;;;;;;;;;;;28.50;58.00;;;;;;5069625;28;19912;-72
2022/08/30 13:46:30;;;;;;;;;;;28.50;57.70;;;;;;5069647;28;19912;-72
2022/08/30 13:49:01;;;;;;;;;;;28.40;58.60;;;;;;5069735;28;19916;-69
2022/08/30 13:51:27;;;;;;;;;;;28.40;59.80;;;;;;5069827;28;20249;-70
2022/08/30 13:53:53;;;;;;;;;;;28.30;59.90;;;;;;5068735;28;19916;-69
2022/08/30 13:56:18;;;;;;;;;;;28.40;58.90;;;;;;5075045;28;20360;-68
2022/08/30 13:58:44;;;;;;;;;;;28.40;59.00;;;;;;5075137;28;19912;-70
2022/08/30 14:01:09;;;;;;;;;;;28.40;60.80;;;;;;5074717;28;19909;-70
2022/08/30 14:03:35;;;;;;;;;;;28.30;60.60;;;;;;5075051;28;20318;-71
2022/08/30 14:06:00;;;;;;;;;;;28.30;60.70;;;;;;5090125;28;20010;-68
2022/08/30 14:08:27;;;;;;;;;;;28.30;61.20;;;;;;5080424;28;19916;-71
2022/08/30 14:10:53;;;;;;;;;;;28.30;60.40;;;;;;5073595;28;19909;-69
2022/08/30 14:13:19;;;;;;;;;;;28.30;59.40;;;;;;5073685;28;20014;-62
2022/08/30 14:15:45;;;;;;;;;;;28.30;59.90;;;;;;5073614;28;19991;-62
2022/08/30 14:18:11;;;;;;;;;;;28.30;59.20;;;;;;5073719;28;20407;-65
2022/08/30 14:20:36;;;;;;;;;;;28.30;59.40;;;;;;5071749;28;19912;-62
2022/08/30 14:23:02;;;;;;;;;;;28.30;58.80;;;;;;5061065;28;19913;-65
2022/08/30 14:25:28;;;;;;;;;;;28.30;58.30;;;;;;5073888;28;20011;-65
2022/08/30 14:27:56;;;;;;;;;;;28.30;59.40;;;;;;5075542;28;20389;-72
2022/08/30 14:30:22;;;;;;;;;;;28.30;59.40;;;;;;5084643;28;19913;-69
2022/08/30 14:32:48;;;;;;;;;;;28.30;59.10;;;;;;5091630;28;19984;-75